MET5207 - Boston to Greenville - Spartanburg

Embraer ERJ-170LR
N924AG
2 hrs 00 mins
691 nm
Scheduled - Daily

Bid/PiRep Status

Bid was submitted on Dec 31 2016.

PiRep # 74548: Approved by Sean Doyle on January 1st, 2017 15:52 UTC

Departure

Departing from
Boston (BOS)
Departure gate
Scheduled Departure
GMT 1230
Local 0830
METAR KBOS 260254Z 03013KT 1 1/2SM -DZ BR OVC004 11/11 A2963 RMK AO2 SFC VIS 1 3/4 SLP032 P0001 60001 T01060106 58021
TAF KBOS 260256Z 2603/2706 06010G21KT 1SM BR VCSH OVC004 FM260600 04013G20KT 2SM +RA BR VCTS OVC003CB FM261000 05009KT 2SM SHRA BR OVC003 FM261200 34005KT 1 1/2SM -SHRA BR OVC003 FM261400 32010KT 3SM BR VCSH OVC008 FM262100 32011KT P6SM OVC025 FM270400 34010K

Arrival

Arriving at
Greenville - Spartanburg (GSP)
Arrival gate
Unassigned
Scheduled Arrival
GMT 1430
Local 1030
METAR KGSP 260253Z 25007KT 10SM CLR 17/11 A2981 RMK AO2 SLP086 T01720106 51023
TAF KGSP 252337Z 2600/2624 25011G18KT P6SM FEW060 FM260300 25007KT P6SM FEW250 FM261700 24012G18KT P6SM SCT250

Route Map

Planning Resources

HAFNR GVE LYH
TERPZ3 LDN GVE J75 GSO J14 SPA
TERPZ5 FLASK J48 SPA92 J53 SPA ICASY OXABY
PATSS SWALO J75 SBJ V419 BIGGY J75 GVE V476 LYH WHTTL
BOS PUT HFD RBV OOD OTT GVE LYH SPA KGSP
Route:
OFP Layout:
Units:
Detailed Navlog:
ETOPS Planning:
Plan Stepclimbs:
Runway Analysis:
Include NOTAMS:
FIR NOTAMS:
Flight Maps:

Return Flights

MET5208
Embraer ERJ-170LR
1500 GMT
MET5210
Embraer ERJ-170LR
0000 GMT

Popularity

Hub Current Bids PiReps this month Total PiReps
KMCI 0 0 2
KLAX 0 0 0
KBOS 0 0 3